Weather at Bayreuth Airport

Public forecast

Using degrees Celsius for public forecast. Weather courtesy of forecast.io.

Closest aviation weather report (METAR) to Bayreuth Airport

Closest report is Hof-Plauen Airport, 20.0 nm (37.1 km) NNE. Retrieved 2022/05/21 21:20 UTC (28 minutes ago):

EDQM 212120Z AUTO 27004KT 9999 // OVC140/// 11/07 Q1020

Closest aviation forecast (TAF) to Bayreuth Airport

Forecast is more than 12 hours old.

Closest forecast is Grafenwohr Army Air Field, 20.8 nm (38.4 km) SE. Retrieved 2022/05/20 18:10 UTC (1 day ago):

TAF ETIC 201800Z 2018/2124 21009KT 8000 -SHRA VCTS SCT035CB QNH2998INS TEMPO 2018/2022 24025G45KT 0800 +TSRA SCT003 OVC030CB BECMG 2023/2024 20010G18KT 9000 -DZ SCT030 QNH3006INS BECMG 2103/2104 27010G15KT 9999 NSW SCT030 QNH3014INS BECMG 2110/2111 29009KT 9999 FEW050 QNH3011INS TX18/2113Z TN08/2104Z